Time;durP1;ratioP1;P1;durP2;ratioP2;P2;SDS_P1;SDS_P2;PMS_P1;PMS_P2;Temp;Humidity;BMP_temperature;BMP_pressure;BME280_temperature;BME280_humidity;BME280_pressure;Samples;Min_cycle;Max_cycle;Signal;HPM_P1;HPM_P2
2023/02/03 00:05:03;;;;;;;3.05;1.25;;;;;;;;;;10484968;28;20106;-78
2023/02/03 00:10:06;;;;;;;2.65;1.60;;;;;;;;;;10490500;28;20033;-76
2023/02/03 00:15:09;;;;;;;2.07;1.10;;;;;;;;;;10478809;28;20053;-77
2023/02/03 00:20:13;;;;;;;5.05;1.30;;;;;;;;;;10488435;28;20369;-78
2023/02/03 00:25:17;;;;;;;3.58;1.08;;;;;;;;;;10484402;28;20064;-79
2023/02/03 00:30:21;;;;;;;3.80;1.20;;;;;;;;;;10482425;28;20051;-78
2023/02/03 00:35:25;;;;;;;4.03;1.20;;;;;;;;;;10481377;28;20309;-77
2023/02/03 00:40:28;;;;;;;2.95;1.17;;;;;;;;;;10479205;28;20128;-77
2023/02/03 00:45:31;;;;;;;6.45;1.50;;;;;;;;;;10485377;28;20059;-78
2023/02/03 00:50:35;;;;;;;3.72;1.17;;;;;;;;;;10476592;28;20571;-76
2023/02/03 00:55:38;;;;;;;;;;;;;;;;;;10505382;27;20072;-77
2023/02/03 01:00:40;;;;;;;3.80;0.85;;;;;;;;;;10487931;28;19920;-76
2023/02/03 01:05:45;;;;;;;4.03;1.70;;;;;;;;;;10478982;28;20047;-76
2023/02/03 01:10:47;;;;;;;;;;;;;;;;;;10481721;28;20046;-76
2023/02/03 01:15:50;;;;;;;5.15;1.10;;;;;;;;;;10482174;28;19947;-78
2023/02/03 01:20:54;;;;;;;1.77;0.75;;;;;;;;;;10476057;28;20040;-75
2023/02/03 01:25:56;;;;;;;;;;;;;;;;;;10481408;28;20049;-75
2023/02/03 01:31:08;;;;;;;2.47;0.98;;;;;;;;;;10480619;28;20213;-75
2023/02/03 01:36:14;;;;;;;6.20;1.50;;;;;;;;;;10487825;28;20040;-77
2023/02/03 01:41:19;;;;;;;4.03;0.82;;;;;;;;;;10480839;28;20037;-77
2023/02/03 01:46:27;;;;;;;4.78;1.60;;;;;;;;;;10484561;28;20052;-77
2023/02/03 01:51:32;;;;;;;3.17;1.15;;;;;;;;;;10509017;28;20045;-77
2023/02/03 01:56:36;;;;;;;2.80;1.10;;;;;;;;;;10498506;28;20139;-77
2023/02/03 02:01:40;;;;;;;1.35;0.82;;;;;;;;;;10485737;28;20040;-77
2023/02/03 02:06:46;;;;;;;2.30;0.98;;;;;;;;;;10479761;28;20044;-78
2023/02/03 02:11:49;;;;;;;2.35;1.23;;;;;;;;;;10489936;28;20108;-77
2023/02/03 02:16:54;;;;;;;2.40;1.33;;;;;;;;;;10499539;28;20044;-77
2023/02/03 02:22:04;;;;;;;3.97;1.20;;;;;;;;;;10505228;28;20044;-78
2023/02/03 02:27:09;;;;;;;7.40;0.82;;;;;;;;;;10491064;28;20044;-78
2023/02/03 02:32:18;;;;;;;3.05;1.20;;;;;;;;;;10486931;28;20132;-77
2023/02/03 02:37:24;;;;;;;2.22;1.20;;;;;;;;;;10493080;28;20191;-77
2023/02/03 02:42:32;;;;;;;2.38;1.13;;;;;;;;;;10488815;28;20424;-79
2023/02/03 02:47:36;;;;;;;1.80;0.63;;;;;;;;;;10483882;28;20047;-77
2023/02/03 02:52:41;;;;;;;2.25;1.00;;;;;;;;;;10485354;28;20032;-78
2023/02/03 02:57:44;;;;;;;1.13;0.80;;;;;;;;;;10489698;28;20048;-76
2023/02/03 03:02:48;;;;;;;1.58;0.80;;;;;;;;;;10500360;28;20535;-78
2023/02/03 03:07:51;;;;;;;;;;;;;;;;;;10485556;28;20051;-78
2023/02/03 03:12:56;;;;;;;3.40;0.80;;;;;;;;;;10487921;28;19924;-79
2023/02/03 03:18:01;;;;;;;3.90;0.90;;;;;;;;;;10483602;28;20486;-78
2023/02/03 03:23:06;;;;;;;4.32;1.05;;;;;;;;;;10489884;28;20478;-78
2023/02/03 03:28:13;;;;;;;1.80;0.88;;;;;;;;;;10485070;28;20044;-79
2023/02/03 03:33:17;;;;;;;2.47;0.82;;;;;;;;;;10483081;28;20039;-77
2023/02/03 03:38:19;;;;;;;;;;;;;;;;;;10480143;28;20453;-77
2023/02/03 03:43:25;;;;;;;2.08;1.13;;;;;;;;;;10480165;28;19924;-77
2023/02/03 03:48:32;;;;;;;1.27;0.70;;;;;;;;;;10490677;28;20049;-76
2023/02/03 03:53:36;;;;;;;0.80;0.57;;;;;;;;;;10483762;28;20072;-76
2023/02/03 03:58:40;;;;;;;3.33;1.23;;;;;;;;;;10488413;28;20189;-77
2023/02/03 04:03:46;;;;;;;2.33;1.02;;;;;;;;;;10478989;28;20052;-78
2023/02/03 04:08:49;;;;;;;2.53;1.00;;;;;;;;;;10484779;28;20374;-78
2023/02/03 04:13:51;;;;;;;8.70;1.40;;;;;;;;;;10482902;28;20170;-77
2023/02/03 04:18:55;;;;;;;2.25;0.93;;;;;;;;;;10487026;28;20516;-78
2023/02/03 04:23:58;;;;;;;1.30;0.82;;;;;;;;;;10492957;28;20036;-76
2023/02/03 04:29:00;;;;;;;1.50;0.90;;;;;;;;;;10487778;28;20044;-77
2023/02/03 04:34:04;;;;;;;2.75;1.10;;;;;;;;;;10483016;28;20570;-76
2023/02/03 04:39:07;;;;;;;1.42;1.15;;;;;;;;;;10479415;28;20044;-77
2023/02/03 04:44:10;;;;;;;1.45;0.57;;;;;;;;;;10479111;28;20075;-77
2023/02/03 04:49:15;;;;;;;3.38;0.80;;;;;;;;;;10481707;28;20494;-78
2023/02/03 04:54:17;;;;;;;2.08;0.80;;;;;;;;;;10491343;28;20123;-76
2023/02/03 04:59:20;;;;;;;2.78;0.98;;;;;;;;;;10517951;28;20055;-76
2023/02/03 05:04:25;;;;;;;3.67;1.17;;;;;;;;;;10550569;28;20060;-77
2023/02/03 05:09:27;;;;;;;3.10;1.00;;;;;;;;;;10520172;28;20095;-78
2023/02/03 05:14:30;;;;;;;1.00;0.85;;;;;;;;;;10491319;28;20443;-78
2023/02/03 05:19:34;;;;;;;1.83;1.00;;;;;;;;;;10472958;28;20040;-77
2023/02/03 05:24:37;;;;;;;;;;;;;;;;;;10484050;28;20037;-78
2023/02/03 05:29:40;;;;;;;4.95;1.20;;;;;;;;;;10480157;28;19927;-77
2023/02/03 05:34:44;;;;;;;1.88;1.02;;;;;;;;;;10480014;28;20033;-76
2023/02/03 05:39:46;;;;;;;4.68;1.48;;;;;;;;;;10485261;28;20044;-76
2023/02/03 05:44:49;;;;;;;2.97;1.25;;;;;;;;;;10482676;28;20433;-77
2023/02/03 05:49:53;;;;;;;2.63;1.00;;;;;;;;;;10473535;28;20045;-77
2023/02/03 05:54:56;;;;;;;2.63;0.82;;;;;;;;;;10482571;28;20056;-78
2023/02/03 05:59:59;;;;;;;2.42;0.90;;;;;;;;;;10488480;28;20095;-79
2023/02/03 06:05:03;;;;;;;3.50;1.30;;;;;;;;;;10489600;28;20024;-79
2023/02/03 06:10:06;;;;;;;4.38;1.38;;;;;;;;;;10485871;28;20120;-79
2023/02/03 06:15:10;;;;;;;2.73;1.20;;;;;;;;;;10482319;28;20528;-80
2023/02/03 06:20:16;;;;;;;2.67;1.00;;;;;;;;;;10488639;28;20428;-78
2023/02/03 06:25:19;;;;;;;1.40;0.60;;;;;;;;;;10500908;28;20093;-77
2023/02/03 06:30:22;;;;;;;2.35;0.77;;;;;;;;;;10483754;28;20436;-79
2023/02/03 06:35:27;;;;;;;5.00;1.27;;;;;;;;;;10480847;28;20043;-78
2023/02/03 06:40:30;;;;;;;4.00;1.20;;;;;;;;;;10487825;28;20317;-77
2023/02/03 06:45:33;;;;;;;6.13;0.90;;;;;;;;;;10487826;28;20433;-77
2023/02/03 06:50:37;;;;;;;2.30;0.70;;;;;;;;;;10489624;28;20390;-78
2023/02/03 06:55:40;;;;;;;5.28;1.30;;;;;;;;;;10501039;28;20434;-77
2023/02/03 07:00:42;;;;;;;3.72;1.15;;;;;;;;;;10483317;28;20048;-77
2023/02/03 07:05:46;;;;;;;3.80;1.10;;;;;;;;;;10481586;28;20035;-77
2023/02/03 07:10:52;;;;;;;1.13;0.98;;;;;;;;;;10485431;28;20052;-78
2023/02/03 07:15:56;;;;;;;1.55;0.70;;;;;;;;;;10482192;28;20052;-78
2023/02/03 07:21:00;;;;;;;3.42;1.27;;;;;;;;;;10485410;28;20068;-75
2023/02/03 07:26:03;;;;;;;;;;;;;;;;;;10492761;28;20032;-76
2023/02/03 07:31:06;;;;;;;2.90;0.80;;;;;;;;;;10478005;28;19993;-76
2023/02/03 07:36:11;;;;;;;2.03;1.00;;;;;;;;;;10482804;28;20068;-76
2023/02/03 07:41:14;;;;;;;3.55;1.08;;;;;;;;;;10475815;28;20161;-76
2023/02/03 07:46:19;;;;;;;3.25;0.63;;;;;;;;;;10481283;28;20047;-78
2023/02/03 07:51:23;;;;;;;4.40;1.00;;;;;;;;;;10476294;28;20277;-77
2023/02/03 07:56:26;;;;;;;4.50;1.20;;;;;;;;;;10486809;28;20108;-78
2023/02/03 08:01:30;;;;;;;1.85;0.82;;;;;;;;;;10482823;28;20051;-79
2023/02/03 08:06:34;;;;;;;2.30;1.00;;;;;;;;;;10478159;28;20068;-78
2023/02/03 08:11:37;;;;;;;1.25;0.57;;;;;;;;;;10482772;28;20056;-78
2023/02/03 08:16:39;;;;;;;1.92;1.00;;;;;;;;;;10485013;28;20049;-78
2023/02/03 08:21:43;;;;;;;3.08;1.00;;;;;;;;;;10481732;28;20071;-78
2023/02/03 08:26:46;;;;;;;1.65;0.75;;;;;;;;;;10480088;28;20425;-79
2023/02/03 08:31:49;;;;;;;1.98;0.68;;;;;;;;;;10482199;28;20045;-78
2023/02/03 08:36:53;;;;;;;0.80;0.80;;;;;;;;;;10482160;28;20485;-77
2023/02/03 08:41:56;;;;;;;2.03;0.60;;;;;;;;;;10483531;28;20075;-77
2023/02/03 08:46:59;;;;;;;2.15;0.98;;;;;;;;;;10470527;28;20098;-78
2023/02/03 08:52:03;;;;;;;2.37;1.17;;;;;;;;;;10478890;28;20454;-77
2023/02/03 08:57:08;;;;;;;3.20;0.90;;;;;;;;;;10478020;28;20444;-77
2023/02/03 09:02:13;;;;;;;2.38;0.70;;;;;;;;;;10477529;28;20040;-79
2023/02/03 09:07:17;;;;;;;2.05;0.65;;;;;;;;;;10491686;28;20611;-79
2023/02/03 09:12:20;;;;;;;;;;;;;;;;;;10489208;28;20629;-78
2023/02/03 09:17:22;;;;;;;0.88;0.63;;;;;;;;;;10483776;28;19920;-79
2023/02/03 09:22:26;;;;;;;1.30;0.80;;;;;;;;;;10480542;28;20044;-79
2023/02/03 09:27:29;;;;;;;2.20;0.80;;;;;;;;;;10479228;28;20498;-78
2023/02/03 09:32:32;;;;;;;1.08;0.52;;;;;;;;;;10480886;28;20616;-79
2023/02/03 09:37:36;;;;;;;1.53;0.70;;;;;;;;;;10473959;28;20051;-77
2023/02/03 09:42:55;;;;;;;2.08;0.82;;;;;;;;;;10475996;28;20025;-77
2023/02/03 09:47:59;;;;;;;2.58;0.88;;;;;;;;;;10474010;28;20052;-78
2023/02/03 09:53:06;;;;;;;4.85;0.90;;;;;;;;;;10475019;28;20378;-77
2023/02/03 09:58:11;;;;;;;1.85;1.20;;;;;;;;;;10474387;28;20044;-78
2023/02/03 10:03:18;;;;;;;2.65;0.80;;;;;;;;;;10491995;28;20048;-78
2023/02/03 10:08:27;;;;;;;1.80;1.00;;;;;;;;;;10478690;28;20319;-77
2023/02/03 10:13:34;;;;;;;1.75;0.70;;;;;;;;;;10478906;28;20417;-78
2023/02/03 10:18:41;;;;;;;2.58;0.95;;;;;;;;;;10484207;28;20131;-78
2023/02/03 10:23:46;;;;;;;3.03;0.90;;;;;;;;;;10471378;28;20047;-77
2023/02/03 10:28:53;;;;;;;2.40;0.82;;;;;;;;;;10472088;28;20089;-77
2023/02/03 10:33:59;;;;;;;3.03;1.02;;;;;;;;;;10473579;28;20048;-77
2023/02/03 10:39:07;;;;;;;0.60;0.50;;;;;;;;;;10483696;28;20040;-78
2023/02/03 10:44:12;;;;;;;2.65;1.00;;;;;;;;;;10479455;28;20048;-78
2023/02/03 10:49:15;;;;;;;1.70;0.70;;;;;;;;;;10478070;28;20041;-77
2023/02/03 10:54:30;;;;;;;2.10;1.00;;;;;;;;;;10483038;28;20526;-78
2023/02/03 10:59:35;;;;;;;2.60;0.93;;;;;;;;;;10478653;28;20059;-78
2023/02/03 11:04:38;;;;;;;1.70;1.00;;;;;;;;;;10478260;28;20077;-78
2023/02/03 11:09:42;;;;;;;2.75;1.00;;;;;;;;;;10476979;28;20037;-77
2023/02/03 11:14:46;;;;;;;1.13;0.77;;;;;;;;;;10487816;28;20037;-77
2023/02/03 11:19:48;;;;;;;;;;;;;;;;;;10482841;28;20049;-78
2023/02/03 11:24:53;;;;;;;3.92;0.88;;;;;;;;;;10484432;28;20396;-76
2023/02/03 11:30:07;;;;;;;2.97;1.00;;;;;;;;;;10480889;28;20440;-76
2023/02/03 11:35:14;;;;;;;3.50;1.00;;;;;;;;;;10478010;28;20410;-78
2023/02/03 11:40:26;;;;;;;1.15;0.60;;;;;;;;;;10483225;28;20044;-79
2023/02/03 11:45:30;;;;;;;0.80;0.80;;;;;;;;;;10477770;28;20072;-79
2023/02/03 11:50:33;;;;;;;;;;;;;;;;;;10480911;28;20040;-78
2023/02/03 11:55:46;;;;;;;0.95;0.70;;;;;;;;;;10472705;28;19920;-79
2023/02/03 12:00:55;;;;;;;1.80;0.60;;;;;;;;;;10479741;28;20048;-79
2023/02/03 12:06:07;;;;;;;1.77;0.65;;;;;;;;;;10477510;28;20098;-79
2023/02/03 12:11:18;;;;;;;1.42;0.70;;;;;;;;;;10480750;28;20128;-78
2023/02/03 12:16:30;;;;;;;1.05;0.70;;;;;;;;;;10478635;28;20052;-79
2023/02/03 12:21:46;;;;;;;1.92;0.80;;;;;;;;;;10467482;28;20040;-80
2023/02/03 12:26:55;;;;;;;3.13;0.68;;;;;;;;;;10477022;28;20638;-80
2023/02/03 12:32:02;;;;;;;4.22;0.60;;;;;;;;;;10482950;28;20571;-83
2023/02/03 12:37:06;;;;;;;1.77;0.60;;;;;;;;;;10477907;28;20127;-79
2023/02/03 12:42:15;;;;;;;0.20;0.20;;;;;;;;;;10478296;28;20072;-80
2023/02/03 12:47:22;;;;;;;1.70;0.75;;;;;;;;;;10472049;28;20056;-79
2023/02/03 12:52:28;;;;;;;0.65;0.60;;;;;;;;;;10475358;28;20037;-79
2023/02/03 12:57:34;;;;;;;0.70;0.60;;;;;;;;;;10478913;28;20146;-79
2023/02/03 13:02:42;;;;;;;1.75;0.90;;;;;;;;;;10473441;28;20063;-80
2023/02/03 13:07:49;;;;;;;1.00;0.60;;;;;;;;;;10468240;28;20577;-80
2023/02/03 13:12:56;;;;;;;3.10;0.98;;;;;;;;;;10474342;28;21793;-80
2023/02/03 13:18:01;;;;;;;1.70;0.70;;;;;;;;;;10473404;28;20051;-78
2023/02/03 13:23:09;;;;;;;2.65;0.90;;;;;;;;;;10471771;28;20048;-77
2023/02/03 13:28:19;;;;;;;1.50;0.80;;;;;;;;;;10476832;28;20048;-77
2023/02/03 13:33:38;;;;;;;1.27;0.63;;;;;;;;;;10474080;28;20068;-78
2023/02/03 13:39:11;;;;;;;2.20;1.10;;;;;;;;;;10482966;28;20474;-77
2023/02/03 13:44:16;;;;;;;1.13;0.70;;;;;;;;;;10398182;28;20140;-79
2023/02/03 13:49:23;;;;;;;3.10;0.75;;;;;;;;;;10473394;28;20036;-78
2023/02/03 13:54:46;;;;;;;3.15;0.75;;;;;;;;;;10468913;28;20455;-78
2023/02/03 14:00:34;;;;;;;1.45;0.80;;;;;;;;;;10476790;28;20064;-77
2023/02/03 14:05:58;;;;;;;4.18;1.05;;;;;;;;;;10475882;28;20040;-77
2023/02/03 14:11:40;;;;;;;3.42;0.90;;;;;;;;;;10470642;28;20048;-78
2023/02/03 14:17:04;;;;;;;0.70;0.60;;;;;;;;;;10480058;28;20045;-79
2023/02/03 14:22:28;;;;;;;3.97;1.25;;;;;;;;;;10499077;28;20078;-79
2023/02/03 14:27:58;;;;;;;1.23;0.50;;;;;;;;;;10474212;28;20067;-77
2023/02/03 14:33:43;;;;;;;1.85;0.55;;;;;;;;;;10477044;28;20058;-78
2023/02/03 14:39:25;;;;;;;1.10;0.70;;;;;;;;;;10476903;28;20047;-78
2023/02/03 14:44:53;;;;;;;3.40;0.52;;;;;;;;;;10478536;28;20135;-78
2023/02/03 14:50:34;;;;;;;0.85;0.70;;;;;;;;;;10480574;28;20423;-79
2023/02/03 14:56:05;;;;;;;1.98;0.75;;;;;;;;;;10474061;28;20049;-79
2023/02/03 15:01:43;;;;;;;1.50;0.68;;;;;;;;;;10484308;28;20041;-78
2023/02/03 15:07:06;;;;;;;1.20;0.68;;;;;;;;;;10457522;28;20057;-78
2023/02/03 15:12:37;;;;;;;2.05;0.80;;;;;;;;;;10482721;28;20049;-77
2023/02/03 15:18:19;;;;;;;0.73;0.40;;;;;;;;;;10480996;28;20041;-78
2023/02/03 15:23:46;;;;;;;1.52;0.55;;;;;;;;;;10483507;28;20071;-78
2023/02/03 15:28:58;;;;;;;1.25;0.77;;;;;;;;;;10483080;28;20202;-78
2023/02/03 15:34:04;;;;;;;3.13;0.70;;;;;;;;;;10481390;28;20048;-78
2023/02/03 15:39:09;;;;;;;1.58;0.65;;;;;;;;;;10476273;28;20229;-77
2023/02/03 15:44:18;;;;;;;1.13;0.77;;;;;;;;;;10477051;28;20401;-78
2023/02/03 15:49:22;;;;;;;1.67;0.70;;;;;;;;;;10478292;28;20041;-78
2023/02/03 15:54:29;;;;;;;;;;;;;;;;;;10475795;28;20240;-77
2023/02/03 15:59:35;;;;;;;3.63;0.95;;;;;;;;;;10499784;28;20334;-76
2023/02/03 16:04:38;;;;;;;1.48;0.98;;;;;;;;;;10518555;28;20037;-78
2023/02/03 16:09:41;;;;;;;2.92;0.85;;;;;;;;;;10531537;28;20039;-78
2023/02/03 16:14:45;;;;;;;1.90;0.80;;;;;;;;;;10531648;28;20039;-78
2023/02/03 16:19:50;;;;;;;;;;;;;;;;;;10533901;28;20707;-78
2023/02/03 16:24:53;;;;;;;2.25;0.98;;;;;;;;;;10527980;28;19920;-78
2023/02/03 16:51:43;;;;;;;0.95;0.82;;;;;;;;;;10552044;28;20687;-79
2023/02/03 16:56:50;;;;;;;2.28;0.88;;;;;;;;;;10559102;28;20043;-76
2023/02/03 17:01:54;;;;;;;0.70;0.68;;;;;;;;;;10540118;28;20444;-79
2023/02/03 17:06:56;;;;;;;;;;;;;;;;;;10536143;28;20040;-78
2023/02/03 17:11:59;;;;;;;0.65;0.65;;;;;;;;;;10531888;28;19927;-78
2023/02/03 17:17:03;;;;;;;0.98;0.43;;;;;;;;;;10522301;28;20467;-79
2023/02/03 17:22:07;;;;;;;0.73;0.52;;;;;;;;;;10565167;28;20040;-79
2023/02/03 17:27:10;;;;;;;2.88;0.93;;;;;;;;;;10553886;28;20054;-80
2023/02/03 17:32:16;;;;;;;0.93;0.80;;;;;;;;;;10551423;28;20040;-78
2023/02/03 17:37:18;;;;;;;0.95;0.80;;;;;;;;;;10549950;28;20067;-79
2023/02/03 17:42:21;;;;;;;0.65;0.65;;;;;;;;;;10550105;28;20041;-78
2023/02/03 17:47:43;;;;;;;1.17;0.55;;;;;;;;;;10557848;28;20470;-79
2023/02/03 17:53:03;;;;;;;2.80;0.93;;;;;;;;;;10565597;28;20036;-78
2023/02/03 17:58:05;;;;;;;1.20;0.80;;;;;;;;;;10529984;28;20406;-77
2023/02/03 18:03:09;;;;;;;1.88;0.75;;;;;;;;;;10539455;28;20493;-77
2023/02/03 18:08:14;;;;;;;1.50;0.88;;;;;;;;;;10540546;28;20035;-77
2023/02/03 18:13:23;;;;;;;4.47;1.13;;;;;;;;;;10537714;28;20089;-77
2023/02/03 18:18:28;;;;;;;1.23;0.82;;;;;;;;;;10534103;28;20043;-78
2023/02/03 18:23:30;;;;;;;;;;;;;;;;;;10525575;28;20047;-78
2023/02/03 18:28:33;;;;;;;1.45;1.00;;;;;;;;;;10543610;28;19992;-79
2023/02/03 18:33:37;;;;;;;2.28;0.93;;;;;;;;;;10535937;28;20130;-78
2023/02/03 18:38:40;;;;;;;1.65;0.80;;;;;;;;;;10529464;28;20044;-77
2023/02/03 18:43:44;;;;;;;1.20;0.80;;;;;;;;;;10535123;28;20446;-77
2023/02/03 18:48:48;;;;;;;3.00;1.00;;;;;;;;;;10543553;28;20136;-77
2023/02/03 18:53:51;;;;;;;2.65;1.30;;;;;;;;;;10543412;28;20040;-78
2023/02/03 18:58:54;;;;;;;1.15;0.80;;;;;;;;;;10528683;28;20574;-79
2023/02/03 19:04:00;;;;;;;1.50;1.02;;;;;;;;;;10534491;28;20055;-78
2023/02/03 19:09:04;;;;;;;1.83;1.15;;;;;;;;;;10542611;28;20046;-78
2023/02/03 19:14:06;;;;;;;1.67;0.95;;;;;;;;;;10545587;28;20067;-79
2023/02/03 19:19:11;;;;;;;1.40;0.95;;;;;;;;;;10535943;28;20036;-79
2023/02/03 19:24:14;;;;;;;1.45;1.05;;;;;;;;;;10538623;28;20085;-78
2023/02/03 19:29:17;;;;;;;2.25;0.60;;;;;;;;;;10539459;28;20398;-78
2023/02/03 19:34:21;;;;;;;1.65;0.75;;;;;;;;;;10534177;28;20055;-78
2023/02/03 19:39:24;;;;;;;;;;;;;;;;;;10533777;28;20123;-78
2023/02/03 19:44:26;;;;;;;1.10;1.00;;;;;;;;;;10559264;28;20093;-79
2023/02/03 19:49:31;;;;;;;1.52;1.15;;;;;;;;;;10562628;28;20067;-77
2023/02/03 19:54:34;;;;;;;1.05;0.82;;;;;;;;;;10534713;28;20140;-78
2023/02/03 19:59:37;;;;;;;2.15;0.93;;;;;;;;;;10523445;28;20044;-77
2023/02/03 20:04:41;;;;;;;0.68;0.60;;;;;;;;;;10507244;28;20097;-78
2023/02/03 20:09:43;;;;;;;;;;;;;;;;;;10523406;28;20036;-78
2023/02/03 20:14:46;;;;;;;3.25;1.20;;;;;;;;;;10523167;28;19924;-77
2023/02/03 20:19:50;;;;;;;1.08;0.65;;;;;;;;;;10530501;28;20075;-78
2023/02/03 20:24:52;;;;;;;0.95;0.73;;;;;;;;;;10528066;28;20521;-79
2023/02/03 20:29:55;;;;;;;1.50;1.20;;;;;;;;;;10525313;28;20480;-78
2023/02/03 20:34:59;;;;;;;1.17;0.90;;;;;;;;;;10521120;28;20054;-78
2023/02/03 20:40:02;;;;;;;0.82;0.77;;;;;;;;;;10521301;28;20059;-78
2023/02/03 20:45:06;;;;;;;1.65;0.90;;;;;;;;;;10518799;28;20040;-77
2023/02/03 20:50:13;;;;;;;1.02;0.93;;;;;;;;;;10532723;28;20046;-77
2023/02/03 20:55:19;;;;;;;2.28;1.20;;;;;;;;;;10506697;28;20043;-78
2023/02/03 21:00:23;;;;;;;2.30;1.30;;;;;;;;;;10528630;28;20059;-79
2023/02/03 21:05:29;;;;;;;1.13;0.70;;;;;;;;;;10527890;28;20079;-77
2023/02/03 21:10:31;;;;;;;1.25;1.08;;;;;;;;;;10523052;28;20446;-78
2023/02/03 21:15:34;;;;;;;1.58;0.82;;;;;;;;;;10525914;28;20055;-78
2023/02/03 21:20:38;;;;;;;2.95;1.02;;;;;;;;;;10517372;28;20347;-77
2023/02/03 21:25:40;;;;;;;1.83;1.17;;;;;;;;;;10522749;28;20554;-77
2023/02/03 21:30:43;;;;;;;1.27;1.00;;;;;;;;;;10526620;28;20043;-77
2023/02/03 21:35:48;;;;;;;1.48;1.08;;;;;;;;;;10525710;28;20085;-77
2023/02/03 21:40:51;;;;;;;1.00;0.75;;;;;;;;;;10525626;28;20051;-77
2023/02/03 21:45:53;;;;;;;2.47;0.90;;;;;;;;;;10519043;28;20580;-77
2023/02/03 21:50:59;;;;;;;0.73;0.70;;;;;;;;;;10527930;28;20067;-77
2023/02/03 21:56:15;;;;;;;1.55;0.95;;;;;;;;;;10518722;28;20042;-77
2023/02/03 22:01:19;;;;;;;1.50;1.02;;;;;;;;;;10536754;28;20654;-77
2023/02/03 22:06:24;;;;;;;0.95;0.80;;;;;;;;;;10525673;28;20578;-77
2023/02/03 22:11:28;;;;;;;2.70;1.20;;;;;;;;;;10521713;28;20043;-77
2023/02/03 22:16:30;;;;;;;1.53;1.00;;;;;;;;;;10519548;28;20062;-78
2023/02/03 22:21:35;;;;;;;1.95;0.80;;;;;;;;;;10526408;28;20036;-78
2023/02/03 22:26:37;;;;;;;1.05;0.80;;;;;;;;;;10511740;28;20123;-78
2023/02/03 22:31:41;;;;;;;1.45;1.00;;;;;;;;;;10520021;28;20084;-77
2023/02/03 22:36:45;;;;;;;2.47;0.90;;;;;;;;;;10526965;28;20035;-78
2023/02/03 22:41:48;;;;;;;3.00;1.20;;;;;;;;;;10523869;28;20143;-78
2023/02/03 22:46:51;;;;;;;1.42;0.95;;;;;;;;;;10527521;28;20036;-76
2023/02/03 22:51:55;;;;;;;1.15;0.60;;;;;;;;;;10525671;28;20077;-77
2023/02/03 22:56:58;;;;;;;0.82;0.70;;;;;;;;;;10529213;28;20115;-78
2023/02/03 23:02:01;;;;;;;1.02;0.82;;;;;;;;;;10525931;28;20036;-77
2023/02/03 23:07:05;;;;;;;1.02;0.90;;;;;;;;;;10522666;28;20032;-79
2023/02/03 23:12:08;;;;;;;1.00;0.52;;;;;;;;;;10521120;28;20092;-78
2023/02/03 23:17:11;;;;;;;1.35;0.90;;;;;;;;;;10519480;28;20044;-78
2023/02/03 23:22:15;;;;;;;1.10;0.82;;;;;;;;;;10523302;28;20546;-78
2023/02/03 23:27:18;;;;;;;;;;;;;;;;;;10523283;28;20359;-77
2023/02/03 23:32:20;;;;;;;2.22;1.10;;;;;;;;;;10528944;28;19977;-77
2023/02/03 23:37:24;;;;;;;1.00;0.65;;;;;;;;;;10528720;28;20493;-77
2023/02/03 23:42:27;;;;;;;1.17;0.70;;;;;;;;;;10527431;28;20066;-79
2023/02/03 23:47:29;;;;;;;1.10;0.73;;;;;;;;;;10530467;28;20044;-77
2023/02/03 23:52:35;;;;;;;1.25;0.75;;;;;;;;;;10532381;28;20048;-76
2023/02/03 23:57:38;;;;;;;0.77;0.77;;;;;;;;;;10523331;28;20040;-78
